Архив погоды в Бухте Амбарчик

Метеограмма Бухта Амбарчик
Понедельник, 25 Июня
Время местн. Темп Ветер Видим Явления Облачность нижн/средн/верх Атм. давл. Влжн Точка росы ВНГО R Сост. почвы Tg s
Напр Скр Прв ур.ст ур.м изм
11:00 +1.5° В,С-В 4 6 4 км дымка {туман} преимущественно облачно 753 755 -0.6 93% +0.5° 300 м - - - -
08:00 -0.4° В 3 5 500 м туман неба не видно 754 756 -0.5 98% -0.7° - - Влажная (без луж) +2° -
05:00 -1.3° В,Ю-В 3 6 500 м туман неба не видно 754 756 -0.2 98% -1.6° - - - - -
02:00 -1.4° В 4 6 500 м туман неба не видно 754 757 -0.9 99% -1.6° - - - - -
Воскресенье, 24 Июня
Время местн. Темп Ветер Видим Явления Облачность нижн/средн/верх Атм. давл. Влжн Точка росы ВНГО R Сост. почвы Tg s
Напр Скр Прв ур.ст ур.м изм
23:00 -1.1° В 4 8 500 м туман неба не видно 755 757 -0.2 98% -1.4° - - - - -
20:00 -0.3° В 5 8 1 км дымка облачно 755 758 +0.1 99% -0.5° 200 м 0 - - -
17:00 +0.9° В 6 9 1 км дымка облачно 755 758 -0.2 94% 300 м - - - -
14:00 +1.8° В 8 10 1 км дымка преимущественно облачно 756 758 0 92% +0.6° 300 м - - - -
11:00 +2.9° В 6 - 1 км дымка облачно с прояснениями 756 758 +0.6 87% +1° 200 м - - - -
08:00 +3.7° В 6 - 4 км дымка облачно с прояснениями 755 757 +0.5 86% +1.6° 600 м 0 Влажная (без луж) - -
05:00 +4.9° В 7 8 20 км - облачно с прояснениями 754 757 +0.5 82% +2.1° 600 м - - - -
02:00 +5.9° В 3 - 20 км - преимущественно облачно 754 756 +0.2 83% +3.3° 600 м - - - -
Суббота, 23 Июня
Время местн. Темп Ветер Видим Явления Облачность нижн/средн/верх Атм. давл. Влжн Точка росы ВНГО R Сост. почвы Tg s
Напр Скр Прв ур.ст ур.м изм
23:00 +7.5° В 4 - 20 км - преимущественно облачно 754 756 +0.4 76% +3.5° 600 м - - - -
20:00 +10.7° В 4 8 20 км - преимущественно облачно 753 755 0 68% +5° 600 м 0.4 - - -
17:00 +11.1° В 3 12 20 км - облачно с прояснениями 753 755 -0.5 73% +6.5° 1 км - - - -
14:00 +19.2° Ю-В 6 - 20 км - преимущественно облачно 754 756 -0.5 57% +10.5° 1 км - - - -
11:00 +18.8° Ю,Ю-В 7 - 20 км небо без изменений {ливневые осадки} преимущественно облачно 754 756 -0.6 64% +11.8° 600 м - - - -
08:00 +16.7° Ю,Ю-З 4 10 20 км - преимущественно облачно 755 757 +0.3 63% +9.6° 600 м 0 Влажная (без луж) +9° -
05:00 +16.2° Ю-В 7 10 20 км - преимущественно облачно 755 757 -0.5 48% +5.2° 600 м - - - -
02:00 +14.9° Ю 8 9 20 км - переменная облачность 755 757 -0.4 49% +4.3° 600 м - - - -
Пятница, 22 Июня
Время местн. Темп Ветер Видим Явления Облачность нижн/средн/верх Атм. давл. Влжн Точка росы ВНГО R Сост. почвы Tg s
Напр Скр Прв ур.ст ур.м изм
23:00 +15.5° Ю,Ю-В 6 8 20 км - переменная облачность 756 758 -0.2 51% +5.4° более 2.5 км - - - -
20:00 +18.8° В,Ю-В 3 6 20 км - переменная облачность 756 758 -0.3 44% +6.3° 600 м 0 - - -
17:00 +18.7° В 4 5 20 км - переменная облачность 756 758 -0.4 51% +8.4° 600 м - - - -
14:00 +15.8° В 4 5 20 км - переменная облачность 756 758 -0.5 61% +8.3° 600 м - - - -
11:00 +16.8° В 4 5 20 км - переменная облачность 757 759 -0.3 55% +7.7° 600 м - - - -
08:00 +12.2° В,С-В 2 - 20 км - переменная облачность 757 759 0 72% +7.3° 600 м 0 Влажная (без луж) - -